LOWL/LNZ METAR and TAF weather

Enter ICAO airport designator
Station Type Date Time Source
LOWL METAR 2020/06/05 13:20 UTC NOAA

LOWL 051320Z 27008KT 240V310 9999 FEW032 BKN080 18/11 Q1001 NOSIG


Station Type Date Time Source
LOWL Decoded METAR 2020/06/05 13:20 UTC NOAA

Linz / Hoersching-Flughafen, Austria (LOWL) 48-14N 014-11E 313M
Jun 05, 2020 - 09:20 AM EDT / 2020.06.05 1320 UTC
Wind: from the W (270 degrees) at 9 MPH (8 KT) (direction variable):0
Visibility: greater than 7 mile(s):0
Sky conditions: mostly cloudy
Temperature: 64 F (18 C)
Dew Point: 51 F (11 C)
Relative Humidity: 63%
Pressure (altimeter): 29.56 in. Hg (1001 hPa)
ob: LOWL 051320Z 27008KT 240V310 9999 FEW032 BKN080 18/11 Q1001 NOSIG
cycle: 13

Station Type Date Time Source
LOWL TAF 2020/06/05 12:21 UTC NOAA

TAF LOWL 051115Z 0512/0612 25005KT 9999 FEW020 BKN040 TX20/0612Z TN12/0603Z
TEMPO 0512/0606 29010KT -SHRA
TEMPO 0606/0612 09005KT

Example: see airport list